This is the latest recevied weather packets stored in our database for station/object CT2IRJ-11. If no packets are shown the sender has not sent any weather packets the latest 1 day(s).
| Time | Temp. | Humidity | Pressure | Rain* | Wind** | Luminosity | Snow |
|---|---|---|---|---|---|---|---|
| 1778093910 | 17.22° C | 59% | 1010.5 hPa | 0 mm | - | 18 W/m² | - |
| 1778093331 | 17.78° C | 58% | 1010.5 hPa | 0 mm | - | 22 W/m² | - |
| 1778092711 | 17.78° C | 56% | 1010.2 hPa | 0 mm | - | 27 W/m² | - |
| 1778092410 | 18.33° C | 56% | 1010.5 hPa | 0 mm | - | 30 W/m² | - |
| 1778092110 | 18.89° C | 55% | 1010.5 hPa | 0 mm | - | 31 W/m² | - |
| 1778091810 | 18.89° C | 54% | 1010.5 hPa | 0 mm | - | 34 W/m² | - |
| 1778090610 | 20° C | 51% | 1010.5 hPa | 0 mm | - | 43 W/m² | - |
| 1778089410 | 20.56° C | 49% | 1010.5 hPa | 0 mm | - | 58 W/m² | - |
| 1778088810 | 21.11° C | 48% | 1010.5 hPa | 0 mm | - | 98 W/m² | - |
| 1778087910 | 22.22° C | 47% | 1010.5 hPa | 0 mm | - | 220 W/m² | - |
| 1778087010 | 22.78° C | 47% | 1010.5 hPa | 0 mm | - | 262 W/m² | - |
| 1778086710 | 23.33° C | 47% | 1010.5 hPa | 0 mm | - | 109 W/m² | - |
| 1778086410 | 22.78° C | 47% | 1010.8 hPa | 0 mm | - | 232 W/m² | - |
| 1778084010 | 23.89° C | 45% | 1010.5 hPa | 0 mm | - | 447 W/m² | - |
| 1778082809 | 23.89° C | 46% | 1010.8 hPa | 0 mm | - | 543 W/m² | - |
| 1778082510 | 23.89° C | 44% | 1010.8 hPa | 0 mm | - | 491 W/m² | - |
| 1778081310 | 23.89° C | 49% | 1010.8 hPa | 0 mm | - | 629 W/m² | - |
| 1778080710 | 23.33° C | 49% | 1010.8 hPa | 0 mm | - | 540 W/m² | - |
| 1778080411 | 23.33° C | 48% | 1011.2 hPa | 0 mm | - | 559 W/m² | - |
| 1778079810 | 21.67° C | 52% | 1011.2 hPa | 0 mm | - | 623 W/m² | - |
| 1778078310 | 23.89° C | 46% | 1011.5 hPa | 0 mm | - | 276 W/m² | - |
| 1778077110 | 21.67° C | 50% | 1011.9 hPa | 0 mm | - | 188 W/m² | - |
| 1778076510 | 21.11° C | 51% | 1011.9 hPa | 0 mm | - | 199 W/m² | - |
| 1778076212 | 21.67° C | 51% | 1011.9 hPa | 0 mm | - | 184 W/m² | - |
| 1778075910 | 21.11° C | 49% | 1011.9 hPa | 0 mm | - | 188 W/m² | - |
* Rain latest hour (hover to see other rain measurements)
** Current wind speed in m/s (hover to see current wind gust speed)